sensor_id;sensor_type;location;lat;lon;timestamp;pressure;altitude;pressure_sealevel;temperature;humidity
64644;BME280;51056;50.330;7.914;2022-08-19T00:01:12;100307.88;;;20.65;69.60
64644;BME280;51056;50.330;7.914;2022-08-19T00:04:17;100312.97;;;20.77;69.16
64644;BME280;51056;50.330;7.914;2022-08-19T00:07:20;100314.13;;;20.74;69.57
64644;BME280;51056;50.330;7.914;2022-08-19T00:10:24;100305.22;;;20.65;70.22
64644;BME280;51056;50.330;7.914;2022-08-19T00:13:27;100316.00;;;20.82;69.76
64644;BME280;51056;50.330;7.914;2022-08-19T00:16:31;100312.00;;;20.78;69.80
64644;BME280;51056;50.330;7.914;2022-08-19T00:19:35;100308.34;;;20.79;69.91
64644;BME280;51056;50.330;7.914;2022-08-19T00:22:39;100308.41;;;20.69;69.90
64644;BME280;51056;50.330;7.914;2022-08-19T00:25:43;100307.34;;;20.80;69.31
64644;BME280;51056;50.330;7.914;2022-08-19T00:28:47;100313.13;;;20.75;69.19
64644;BME280;51056;50.330;7.914;2022-08-19T00:31:50;100313.13;;;20.75;68.26
64644;BME280;51056;50.330;7.914;2022-08-19T00:34:57;100312.91;;;20.69;69.27
64644;BME280;51056;50.330;7.914;2022-08-19T00:38:01;100308.19;;;20.62;69.15
64644;BME280;51056;50.330;7.914;2022-08-19T00:41:05;100307.41;;;20.52;70.67
64644;BME280;51056;50.330;7.914;2022-08-19T00:44:16;100312.44;;;20.55;71.32
64644;BME280;51056;50.330;7.914;2022-08-19T00:47:22;100311.53;;;20.64;71.27
64644;BME280;51056;50.330;7.914;2022-08-19T00:50:25;100315.09;;;20.73;71.08
64644;BME280;51056;50.330;7.914;2022-08-19T00:53:28;100307.28;;;20.72;70.95
64644;BME280;51056;50.330;7.914;2022-08-19T00:56:33;100301.50;;;20.76;70.52
64644;BME280;51056;50.330;7.914;2022-08-19T00:59:39;100300.75;;;20.66;71.13
64644;BME280;51056;50.330;7.914;2022-08-19T01:02:43;100298.69;;;20.60;71.09
64644;BME280;51056;50.330;7.914;2022-08-19T01:05:50;100295.91;;;20.61;70.85
64644;BME280;51056;50.330;7.914;2022-08-19T01:08:55;100303.41;;;20.66;70.58
64644;BME280;51056;50.330;7.914;2022-08-19T01:12:01;100300.03;;;20.64;70.53
64644;BME280;51056;50.330;7.914;2022-08-19T01:15:05;100304.28;;;20.57;70.64
64644;BME280;51056;50.330;7.914;2022-08-19T01:18:12;100300.53;;;20.50;70.62
64644;BME280;51056;50.330;7.914;2022-08-19T01:21:31;100295.97;;;20.42;70.95
64644;BME280;51056;50.330;7.914;2022-08-19T01:24:35;100292.63;;;20.40;70.78
64644;BME280;51056;50.330;7.914;2022-08-19T01:27:43;100284.88;;;20.29;71.26
64644;BME280;51056;50.330;7.914;2022-08-19T01:30:46;100279.50;;;20.38;70.83
64644;BME280;51056;50.330;7.914;2022-08-19T01:33:50;100274.06;;;20.40;70.56
64644;BME280;51056;50.330;7.914;2022-08-19T01:36:54;100266.09;;;20.40;68.77
64644;BME280;51056;50.330;7.914;2022-08-19T01:39:58;100263.50;;;20.30;69.98
64644;BME280;51056;50.330;7.914;2022-08-19T01:43:02;100265.91;;;20.24;70.61
64644;BME280;51056;50.330;7.914;2022-08-19T01:46:06;100265.44;;;20.10;70.93
64644;BME280;51056;50.330;7.914;2022-08-19T01:49:09;100269.59;;;20.13;70.93
64644;BME280;51056;50.330;7.914;2022-08-19T01:52:13;100262.91;;;20.09;70.93
64644;BME280;51056;50.330;7.914;2022-08-19T01:55:17;100261.00;;;20.01;71.26
64644;BME280;51056;50.330;7.914;2022-08-19T01:58:23;100251.59;;;20.07;71.52
64644;BME280;51056;50.330;7.914;2022-08-19T02:01:28;100248.50;;;19.84;72.11
64644;BME280;51056;50.330;7.914;2022-08-19T02:04:35;100265.13;;;19.86;71.97
64644;BME280;51056;50.330;7.914;2022-08-19T02:07:40;100259.34;;;19.90;72.07
64644;BME280;51056;50.330;7.914;2022-08-19T02:10:44;100275.03;;;19.84;72.07
64644;BME280;51056;50.330;7.914;2022-08-19T02:13:47;100269.19;;;19.80;72.38
64644;BME280;51056;50.330;7.914;2022-08-19T02:16:53;100269.72;;;19.84;72.08
64644;BME280;51056;50.330;7.914;2022-08-19T02:19:59;100279.72;;;19.62;73.01
64644;BME280;51056;50.330;7.914;2022-08-19T02:23:02;100287.97;;;19.59;73.32
64644;BME280;51056;50.330;7.914;2022-08-19T02:26:11;100288.63;;;19.61;73.10
64644;BME280;51056;50.330;7.914;2022-08-19T02:29:17;100282.94;;;19.66;72.78
64644;BME280;51056;50.330;7.914;2022-08-19T02:32:21;100284.72;;;19.75;72.29
64644;BME280;51056;50.330;7.914;2022-08-19T02:35:25;100292.97;;;19.62;72.82
64644;BME280;51056;50.330;7.914;2022-08-19T02:38:28;100285.16;;;19.70;71.54
64644;BME280;51056;50.330;7.914;2022-08-19T02:41:35;100281.38;;;19.63;71.58
64644;BME280;51056;50.330;7.914;2022-08-19T02:44:38;100292.13;;;19.52;72.09
64644;BME280;51056;50.330;7.914;2022-08-19T02:47:42;100283.63;;;19.48;72.77
64644;BME280;51056;50.330;7.914;2022-08-19T02:50:52;100296.78;;;19.50;72.60
64644;BME280;51056;50.330;7.914;2022-08-19T02:53:57;100299.69;;;19.57;72.77
64644;BME280;51056;50.330;7.914;2022-08-19T02:57:04;100298.19;;;19.35;73.48
64644;BME280;51056;50.330;7.914;2022-08-19T03:00:09;100301.38;;;19.38;73.51
64644;BME280;51056;50.330;7.914;2022-08-19T03:03:15;100302.22;;;19.39;73.73
64644;BME280;51056;50.330;7.914;2022-08-19T03:06:19;100303.31;;;19.46;72.87
64644;BME280;51056;50.330;7.914;2022-08-19T03:09:23;100306.72;;;19.28;72.79
64644;BME280;51056;50.330;7.914;2022-08-19T03:12:34;100310.84;;;19.50;72.11
64644;BME280;51056;50.330;7.914;2022-08-19T03:15:44;100319.22;;;19.46;72.20
64644;BME280;51056;50.330;7.914;2022-08-19T03:18:52;100317.84;;;19.42;72.44
64644;BME280;51056;50.330;7.914;2022-08-19T03:21:55;100319.25;;;19.26;73.34
64644;BME280;51056;50.330;7.914;2022-08-19T03:25:01;100315.78;;;19.16;73.36
64644;BME280;51056;50.330;7.914;2022-08-19T03:28:05;100327.66;;;18.93;74.79
64644;BME280;51056;50.330;7.914;2022-08-19T03:31:11;100321.78;;;19.09;74.14
64644;BME280;51056;50.330;7.914;2022-08-19T03:34:20;100323.47;;;19.10;74.15
64644;BME280;51056;50.330;7.914;2022-08-19T03:37:24;100317.06;;;19.02;74.78
64644;BME280;51056;50.330;7.914;2022-08-19T03:40:28;100322.34;;;19.12;74.17
64644;BME280;51056;50.330;7.914;2022-08-19T03:43:35;100315.09;;;19.04;74.67
64644;BME280;51056;50.330;7.914;2022-08-19T03:46:40;100315.66;;;19.08;74.50
64644;BME280;51056;50.330;7.914;2022-08-19T03:49:43;100324.56;;;19.07;74.23
64644;BME280;51056;50.330;7.914;2022-08-19T03:52:49;100320.09;;;18.98;74.19
64644;BME280;51056;50.330;7.914;2022-08-19T03:55:53;100314.81;;;18.88;75.01
64644;BME280;51056;50.330;7.914;2022-08-19T03:59:04;100317.44;;;18.88;75.14
64644;BME280;51056;50.330;7.914;2022-08-19T04:02:10;100323.75;;;18.97;74.96
64644;BME280;51056;50.330;7.914;2022-08-19T04:05:14;100331.81;;;18.86;75.32
64644;BME280;51056;50.330;7.914;2022-08-19T04:08:17;100323.03;;;18.95;74.72
64644;BME280;51056;50.330;7.914;2022-08-19T04:11:27;100327.50;;;18.85;75.25
64644;BME280;51056;50.330;7.914;2022-08-19T04:14:30;100336.69;;;18.80;74.98
64644;BME280;51056;50.330;7.914;2022-08-19T04:17:33;100347.41;;;18.79;75.02
64644;BME280;51056;50.330;7.914;2022-08-19T04:20:41;100348.97;;;18.81;74.89
64644;BME280;51056;50.330;7.914;2022-08-19T04:23:45;100349.06;;;18.70;75.37
64644;BME280;51056;50.330;7.914;2022-08-19T04:26:51;100348.63;;;18.65;75.62
64644;BME280;51056;50.330;7.914;2022-08-19T04:29:54;100359.50;;;18.62;75.94
64644;BME280;51056;50.330;7.914;2022-08-19T04:32:57;100363.94;;;18.52;76.45
64644;BME280;51056;50.330;7.914;2022-08-19T04:36:03;100358.44;;;18.74;75.30
64644;BME280;51056;50.330;7.914;2022-08-19T04:39:14;100362.47;;;18.78;75.08
64644;BME280;51056;50.330;7.914;2022-08-19T04:42:20;100352.16;;;18.75;75.31
64644;BME280;51056;50.330;7.914;2022-08-19T04:45:44;100346.25;;;18.72;75.50
64644;BME280;51056;50.330;7.914;2022-08-19T04:48:59;100350.03;;;18.69;75.72
64644;BME280;51056;50.330;7.914;2022-08-19T04:52:03;100355.81;;;18.84;74.57
64644;BME280;51056;50.330;7.914;2022-08-19T04:55:07;100352.16;;;18.75;75.39
64644;BME280;51056;50.330;7.914;2022-08-19T04:58:13;100351.84;;;18.69;75.68
64644;BME280;51056;50.330;7.914;2022-08-19T05:01:27;100362.13;;;18.62;76.01
64644;BME280;51056;50.330;7.914;2022-08-19T05:04:31;100360.75;;;18.68;75.83
64644;BME280;51056;50.330;7.914;2022-08-19T05:07:35;100349.59;;;18.64;75.80
64644;BME280;51056;50.330;7.914;2022-08-19T05:10:39;100350.44;;;18.65;75.91
64644;BME280;51056;50.330;7.914;2022-08-19T05:13:43;100349.84;;;18.42;77.18
64644;BME280;51056;50.330;7.914;2022-08-19T05:16:51;100361.59;;;18.28;77.58
64644;BME280;51056;50.330;7.914;2022-08-19T05:19:55;100363.31;;;17.98;79.15
64644;BME280;51056;50.330;7.914;2022-08-19T05:23:18;100364.06;;;18.10;78.71
64644;BME280;51056;50.330;7.914;2022-08-19T05:26:21;100370.69;;;18.25;78.35
64644;BME280;51056;50.330;7.914;2022-08-19T05:29:25;100365.66;;;18.22;78.55
64644;BME280;51056;50.330;7.914;2022-08-19T05:32:30;100365.91;;;18.19;78.52
64644;BME280;51056;50.330;7.914;2022-08-19T05:35:33;100369.72;;;18.05;79.11
64644;BME280;51056;50.330;7.914;2022-08-19T05:38:36;100366.56;;;18.11;78.93
64644;BME280;51056;50.330;7.914;2022-08-19T05:41:43;100371.13;;;18.00;79.75
64644;BME280;51056;50.330;7.914;2022-08-19T05:44:49;100376.50;;;18.19;78.75
64644;BME280;51056;50.330;7.914;2022-08-19T05:47:54;100379.47;;;18.05;79.62
64644;BME280;51056;50.330;7.914;2022-08-19T05:50:58;100380.00;;;17.99;79.61
64644;BME280;51056;50.330;7.914;2022-08-19T05:54:03;100381.44;;;18.03;79.88
64644;BME280;51056;50.330;7.914;2022-08-19T05:57:11;100375.34;;;18.12;79.50
64644;BME280;51056;50.330;7.914;2022-08-19T06:00:17;100363.84;;;18.23;79.04
64644;BME280;51056;50.330;7.914;2022-08-19T06:03:22;100368.06;;;18.04;79.19
64644;BME280;51056;50.330;7.914;2022-08-19T06:06:28;100371.03;;;18.11;79.27
64644;BME280;51056;50.330;7.914;2022-08-19T06:09:32;100379.84;;;18.21;78.56
64644;BME280;51056;50.330;7.914;2022-08-19T06:12:36;100377.53;;;18.38;77.97
64644;BME280;51056;50.330;7.914;2022-08-19T06:15:39;100375.44;;;18.31;78.33
64644;BME280;51056;50.330;7.914;2022-08-19T06:18:45;100384.53;;;18.48;77.74
64644;BME280;51056;50.330;7.914;2022-08-19T06:21:48;100382.56;;;18.41;77.95
64644;BME280;51056;50.330;7.914;2022-08-19T06:24:55;100396.63;;;18.31;78.64
64644;BME280;51056;50.330;7.914;2022-08-19T06:27:59;100405.16;;;18.45;78.08
64644;BME280;51056;50.330;7.914;2022-08-19T06:31:05;100405.81;;;18.37;78.05
64644;BME280;51056;50.330;7.914;2022-08-19T06:34:13;100402.78;;;18.42;78.29
64644;BME280;51056;50.330;7.914;2022-08-19T06:37:25;100409.28;;;18.38;78.95
64644;BME280;51056;50.330;7.914;2022-08-19T06:40:29;100426.19;;;18.46;78.09
64644;BME280;51056;50.330;7.914;2022-08-19T06:43:32;100427.31;;;18.53;77.57
64644;BME280;51056;50.330;7.914;2022-08-19T06:46:36;100439.47;;;18.56;77.25
64644;BME280;51056;50.330;7.914;2022-08-19T06:49:40;100430.50;;;18.47;77.54
64644;BME280;51056;50.330;7.914;2022-08-19T06:52:43;100437.88;;;18.44;78.00
64644;BME280;51056;50.330;7.914;2022-08-19T06:55:54;100439.66;;;18.33;78.34
64644;BME280;51056;50.330;7.914;2022-08-19T06:59:12;100445.00;;;18.43;78.09
64644;BME280;51056;50.330;7.914;2022-08-19T07:02:16;100442.66;;;18.50;78.40
64644;BME280;51056;50.330;7.914;2022-08-19T07:05:21;100445.19;;;18.51;78.40
64644;BME280;51056;50.330;7.914;2022-08-19T07:08:27;100446.56;;;18.55;77.11
64644;BME280;51056;50.330;7.914;2022-08-19T07:11:31;100449.22;;;18.76;76.26
64644;BME280;51056;50.330;7.914;2022-08-19T07:14:36;100444.06;;;18.94;74.85
64644;BME280;51056;50.330;7.914;2022-08-19T07:17:40;100440.06;;;19.00;74.51
64644;BME280;51056;50.330;7.914;2022-08-19T07:20:46;100448.84;;;19.10;74.11
64644;BME280;51056;50.330;7.914;2022-08-19T07:23:50;100453.47;;;19.08;74.22
64644;BME280;51056;50.330;7.914;2022-08-19T07:26:59;100455.72;;;19.22;73.53
64644;BME280;51056;50.330;7.914;2022-08-19T07:30:06;100452.78;;;19.25;73.26
64644;BME280;51056;50.330;7.914;2022-08-19T07:33:09;100455.44;;;19.25;73.25
64644;BME280;51056;50.330;7.914;2022-08-19T07:36:17;100457.09;;;19.36;73.16
64644;BME280;51056;50.330;7.914;2022-08-19T07:39:28;100457.97;;;19.56;72.90
64644;BME280;51056;50.330;7.914;2022-08-19T07:42:34;100453.53;;;19.76;71.88
64644;BME280;51056;50.330;7.914;2022-08-19T07:45:42;100456.28;;;19.94;71.17
64644;BME280;51056;50.330;7.914;2022-08-19T07:48:46;100447.47;;;20.03;70.54
64644;BME280;51056;50.330;7.914;2022-08-19T07:51:53;100459.31;;;20.09;70.27
64644;BME280;51056;50.330;7.914;2022-08-19T07:54:57;100445.03;;;20.19;69.78
64644;BME280;51056;50.330;7.914;2022-08-19T07:58:02;100454.13;;;20.27;69.89
64644;BME280;51056;50.330;7.914;2022-08-19T08:01:10;100461.22;;;20.36;69.82
64644;BME280;51056;50.330;7.914;2022-08-19T08:04:13;100453.88;;;20.57;69.37
64644;BME280;51056;50.330;7.914;2022-08-19T08:07:35;100442.63;;;20.73;68.47
64644;BME280;51056;50.330;7.914;2022-08-19T08:10:57;100445.94;;;20.85;67.99
64644;BME280;51056;50.330;7.914;2022-08-19T08:14:02;100438.13;;;21.01;68.77
64644;BME280;51056;50.330;7.914;2022-08-19T08:17:08;100429.50;;;21.17;67.50
64644;BME280;51056;50.330;7.914;2022-08-19T08:20:15;100437.31;;;21.19;67.46
64644;BME280;51056;50.330;7.914;2022-08-19T08:23:22;100436.25;;;21.29;67.88
64644;BME280;51056;50.330;7.914;2022-08-19T08:26:27;100428.13;;;21.31;67.31
64644;BME280;51056;50.330;7.914;2022-08-19T08:29:31;100428.06;;;21.23;67.61
64644;BME280;51056;50.330;7.914;2022-08-19T08:32:34;100431.63;;;21.31;67.63
64644;BME280;51056;50.330;7.914;2022-08-19T08:35:38;100427.22;;;21.40;67.14
64644;BME280;51056;50.330;7.914;2022-08-19T08:38:42;100429.69;;;21.51;66.94
64644;BME280;51056;50.330;7.914;2022-08-19T08:42:05;100426.44;;;21.66;66.62
64644;BME280;51056;50.330;7.914;2022-08-19T08:45:10;100434.72;;;21.80;66.15
64644;BME280;51056;50.330;7.914;2022-08-19T08:48:31;100429.03;;;22.01;65.57
64644;BME280;51056;50.330;7.914;2022-08-19T08:51:42;100429.34;;;22.16;64.75
64644;BME280;51056;50.330;7.914;2022-08-19T08:54:47;100432.19;;;22.23;63.96
64644;BME280;51056;50.330;7.914;2022-08-19T08:57:57;100418.53;;;22.18;64.51
64644;BME280;51056;50.330;7.914;2022-08-19T09:01:02;100421.84;;;21.94;64.43
64644;BME280;51056;50.330;7.914;2022-08-19T09:04:05;100423.88;;;22.26;64.05
64644;BME280;51056;50.330;7.914;2022-08-19T09:16:32;100433.41;;;22.63;61.51
64644;BME280;51056;50.330;7.914;2022-08-19T09:19:35;100417.91;;;22.66;58.79
64644;BME280;51056;50.330;7.914;2022-08-19T09:22:39;100411.66;;;22.92;58.14
64644;BME280;51056;50.330;7.914;2022-08-19T09:25:43;100416.56;;;23.13;57.17
64644;BME280;51056;50.330;7.914;2022-08-19T09:28:47;100410.25;;;23.22;56.06
64644;BME280;51056;50.330;7.914;2022-08-19T09:31:51;100407.72;;;23.12;55.64
64644;BME280;51056;50.330;7.914;2022-08-19T09:34:58;100412.75;;;23.24;56.42
64644;BME280;51056;50.330;7.914;2022-08-19T09:38:03;100409.09;;;23.49;55.96
64644;BME280;51056;50.330;7.914;2022-08-19T09:41:11;100403.25;;;23.62;55.60
64644;BME280;51056;50.330;7.914;2022-08-19T09:44:16;100404.78;;;23.73;52.98
64644;BME280;51056;50.330;7.914;2022-08-19T09:47:19;100403.09;;;23.47;51.77
64644;BME280;51056;50.330;7.914;2022-08-19T09:50:22;100397.59;;;23.49;52.14
64644;BME280;51056;50.330;7.914;2022-08-19T09:53:26;100398.91;;;23.61;51.45
64644;BME280;51056;50.330;7.914;2022-08-19T09:56:30;100392.25;;;23.73;51.44
64644;BME280;51056;50.330;7.914;2022-08-19T09:59:33;100395.22;;;23.86;51.56
64644;BME280;51056;50.330;7.914;2022-08-19T10:02:37;100395.84;;;24.13;51.58
64644;BME280;51056;50.330;7.914;2022-08-19T10:05:40;100392.84;;;24.08;50.49
64644;BME280;51056;50.330;7.914;2022-08-19T10:08:55;100400.19;;;24.22;50.48
64644;BME280;51056;50.330;7.914;2022-08-19T10:12:45;100388.16;;;24.18;49.98
64644;BME280;51056;50.330;7.914;2022-08-19T10:15:50;100385.78;;;24.31;50.11
64644;BME280;51056;50.330;7.914;2022-08-19T10:18:54;100393.81;;;24.31;50.22
64644;BME280;51056;50.330;7.914;2022-08-19T10:21:57;100378.06;;;24.45;49.07
64644;BME280;51056;50.330;7.914;2022-08-19T10:25:00;100373.78;;;24.67;49.37
64644;BME280;51056;50.330;7.914;2022-08-19T10:28:04;100364.44;;;24.63;47.78
64644;BME280;51056;50.330;7.914;2022-08-19T10:31:10;100369.31;;;24.59;48.59
64644;BME280;51056;50.330;7.914;2022-08-19T10:34:13;100368.69;;;24.49;48.49
64644;BME280;51056;50.330;7.914;2022-08-19T10:37:17;100359.31;;;24.84;48.35
64644;BME280;51056;50.330;7.914;2022-08-19T10:40:20;100359.97;;;25.09;47.93
64644;BME280;51056;50.330;7.914;2022-08-19T10:43:24;100360.09;;;24.93;48.62
64644;BME280;51056;50.330;7.914;2022-08-19T10:46:27;100363.94;;;24.67;48.20
64644;BME280;51056;50.330;7.914;2022-08-19T10:49:31;100353.16;;;24.75;48.00
64644;BME280;51056;50.330;7.914;2022-08-19T10:52:35;100349.00;;;24.73;47.70
64644;BME280;51056;50.330;7.914;2022-08-19T10:55:38;100345.56;;;24.64;48.06
64644;BME280;51056;50.330;7.914;2022-08-19T10:59:00;100349.63;;;24.83;47.99
64644;BME280;51056;50.330;7.914;2022-08-19T11:02:08;100349.41;;;24.93;48.08
64644;BME280;51056;50.330;7.914;2022-08-19T11:05:16;100347.06;;;24.90;48.28
64644;BME280;51056;50.330;7.914;2022-08-19T11:08:21;100345.66;;;25.02;46.28
64644;BME280;51056;50.330;7.914;2022-08-19T11:11:25;100332.53;;;24.92;45.86
64644;BME280;51056;50.330;7.914;2022-08-19T11:14:35;100332.28;;;25.25;45.43
64644;BME280;51056;50.330;7.914;2022-08-19T11:17:39;100328.69;;;25.33;45.97
64644;BME280;51056;50.330;7.914;2022-08-19T11:20:46;100339.91;;;25.13;45.89
64644;BME280;51056;50.330;7.914;2022-08-19T11:23:51;100338.94;;;24.83;46.55
64644;BME280;51056;50.330;7.914;2022-08-19T11:26:59;100336.41;;;24.81;45.80
64644;BME280;51056;50.330;7.914;2022-08-19T11:30:05;100331.06;;;25.04;45.01
64644;BME280;51056;50.330;7.914;2022-08-19T11:33:10;100318.09;;;25.39;43.08
64644;BME280;51056;50.330;7.914;2022-08-19T11:36:13;100326.88;;;25.48;43.72
64644;BME280;51056;50.330;7.914;2022-08-19T11:39:19;100322.34;;;25.34;44.77
64644;BME280;51056;50.330;7.914;2022-08-19T11:42:23;100325.59;;;25.44;43.00
64644;BME280;51056;50.330;7.914;2022-08-19T11:45:44;100324.72;;;25.66;41.87
64644;BME280;51056;50.330;7.914;2022-08-19T11:48:47;100331.94;;;25.81;40.30
64644;BME280;51056;50.330;7.914;2022-08-19T11:51:52;100322.28;;;25.71;42.21
64644;BME280;51056;50.330;7.914;2022-08-19T11:54:57;100321.94;;;25.60;43.02
64644;BME280;51056;50.330;7.914;2022-08-19T11:58:00;100319.72;;;25.63;43.40
64644;BME280;51056;50.330;7.914;2022-08-19T12:01:07;100335.06;;;25.69;43.96
64644;BME280;51056;50.330;7.914;2022-08-19T12:04:11;100334.31;;;25.75;43.30
64644;BME280;51056;50.330;7.914;2022-08-19T12:07:14;100322.53;;;25.85;43.01
64644;BME280;51056;50.330;7.914;2022-08-19T12:10:18;100326.00;;;26.30;42.57
64644;BME280;51056;50.330;7.914;2022-08-19T12:13:22;100310.16;;;26.13;41.72
64644;BME280;51056;50.330;7.914;2022-08-19T12:16:27;100302.56;;;26.02;42.88
64644;BME280;51056;50.330;7.914;2022-08-19T12:19:30;100310.50;;;25.81;43.04
64644;BME280;51056;50.330;7.914;2022-08-19T12:22:33;100304.41;;;25.87;42.67
64644;BME280;51056;50.330;7.914;2022-08-19T12:25:38;100311.19;;;25.97;41.67
64644;BME280;51056;50.330;7.914;2022-08-19T12:28:46;100304.56;;;26.30;41.87
64644;BME280;51056;50.330;7.914;2022-08-19T12:31:51;100303.41;;;26.54;41.26
64644;BME280;51056;50.330;7.914;2022-08-19T12:34:54;100286.41;;;26.61;40.79
64644;BME280;51056;50.330;7.914;2022-08-19T12:38:00;100280.38;;;26.23;40.42
64644;BME280;51056;50.330;7.914;2022-08-19T12:41:07;100287.09;;;26.49;39.61
64644;BME280;51056;50.330;7.914;2022-08-19T12:44:12;100286.16;;;26.78;39.14
64644;BME280;51056;50.330;7.914;2022-08-19T12:47:18;100278.22;;;26.91;39.85
64644;BME280;51056;50.330;7.914;2022-08-19T12:50:22;100275.63;;;27.04;38.49
64644;BME280;51056;50.330;7.914;2022-08-19T12:53:25;100277.66;;;26.74;38.62
64644;BME280;51056;50.330;7.914;2022-08-19T12:56:29;100256.72;;;27.12;39.02
64644;BME280;51056;50.330;7.914;2022-08-19T12:59:32;100264.78;;;27.41;37.67
64644;BME280;51056;50.330;7.914;2022-08-19T13:02:38;100258.09;;;27.93;37.01
64644;BME280;51056;50.330;7.914;2022-08-19T13:05:41;100265.41;;;28.12;36.35
64644;BME280;51056;50.330;7.914;2022-08-19T13:08:49;100272.78;;;28.58;36.80
64644;BME280;51056;50.330;7.914;2022-08-19T13:11:53;100285.25;;;29.72;34.04
64644;BME280;51056;50.330;7.914;2022-08-19T13:15:00;100268.66;;;31.65;31.02
64644;BME280;51056;50.330;7.914;2022-08-19T13:18:03;100270.56;;;36.82;23.77
64644;BME280;51056;50.330;7.914;2022-08-19T13:21:09;100262.06;;;39.59;20.04
64644;BME280;51056;50.330;7.914;2022-08-19T13:24:16;100272.88;;;32.47;27.51
64644;BME280;51056;50.330;7.914;2022-08-19T13:27:20;100260.53;;;33.63;26.63
64644;BME280;51056;50.330;7.914;2022-08-19T13:30:23;100277.56;;;30.34;31.57
64644;BME280;51056;50.330;7.914;2022-08-19T13:33:45;100285.72;;;30.59;30.63
64644;BME280;51056;50.330;7.914;2022-08-19T13:36:48;100278.22;;;33.66;26.56
64644;BME280;51056;50.330;7.914;2022-08-19T13:39:54;100260.56;;;37.30;23.26
64644;BME280;51056;50.330;7.914;2022-08-19T13:43:00;100267.28;;;37.54;21.86
64644;BME280;51056;50.330;7.914;2022-08-19T13:46:08;100260.38;;;36.99;22.05
64644;BME280;51056;50.330;7.914;2022-08-19T13:49:12;100269.75;;;31.39;28.79
64644;BME280;51056;50.330;7.914;2022-08-19T13:52:15;100271.06;;;32.10;27.68
64644;BME280;51056;50.330;7.914;2022-08-19T13:55:19;100255.66;;;36.57;22.72
64644;BME280;51056;50.330;7.914;2022-08-19T13:58:22;100260.72;;;36.48;21.93
64644;BME280;51056;50.330;7.914;2022-08-19T14:01:25;100256.25;;;35.66;23.11
64644;BME280;51056;50.330;7.914;2022-08-19T14:04:30;100248.97;;;37.02;20.40
64644;BME280;51056;50.330;7.914;2022-08-19T14:07:33;100240.34;;;37.63;22.55
64644;BME280;51056;50.330;7.914;2022-08-19T14:10:42;100252.16;;;39.78;22.73
64644;BME280;51056;50.330;7.914;2022-08-19T14:13:47;100244.44;;;39.85;18.92
64644;BME280;51056;50.330;7.914;2022-08-19T14:16:50;100259.97;;;35.60;22.55
64644;BME280;51056;50.330;7.914;2022-08-19T14:19:58;100263.50;;;35.82;22.53
64644;BME280;51056;50.330;7.914;2022-08-19T14:23:03;100266.19;;;33.73;25.45
64644;BME280;51056;50.330;7.914;2022-08-19T14:26:10;100268.25;;;34.81;23.93
64644;BME280;51056;50.330;7.914;2022-08-19T14:29:14;100262.50;;;35.67;24.00
64644;BME280;51056;50.330;7.914;2022-08-19T14:32:17;100273.44;;;34.08;24.71
64644;BME280;51056;50.330;7.914;2022-08-19T14:35:21;100271.50;;;31.34;29.33
64644;BME280;51056;50.330;7.914;2022-08-19T14:38:25;100267.09;;;30.51;29.22
64644;BME280;51056;50.330;7.914;2022-08-19T14:41:28;100253.09;;;32.88;26.74
64644;BME280;51056;50.330;7.914;2022-08-19T14:44:33;100271.63;;;32.61;27.99
64644;BME280;51056;50.330;7.914;2022-08-19T14:47:37;100267.94;;;31.33;29.53
64644;BME280;51056;50.330;7.914;2022-08-19T14:50:41;100271.63;;;30.89;29.34
64644;BME280;51056;50.330;7.914;2022-08-19T14:53:44;100275.38;;;30.04;31.35
64644;BME280;51056;50.330;7.914;2022-08-19T14:56:47;100274.41;;;30.37;30.76
64644;BME280;51056;50.330;7.914;2022-08-19T14:59:54;100266.63;;;29.37;33.50
64644;BME280;51056;50.330;7.914;2022-08-19T15:02:57;100272.22;;;29.62;31.82
64644;BME280;51056;50.330;7.914;2022-08-19T15:06:03;100279.47;;;29.29;32.33
64644;BME280;51056;50.330;7.914;2022-08-19T15:09:07;100278.63;;;29.55;33.61
64644;BME280;51056;50.330;7.914;2022-08-19T15:12:14;100282.34;;;29.54;33.95
64644;BME280;51056;50.330;7.914;2022-08-19T15:15:20;100280.69;;;29.66;31.89
64644;BME280;51056;50.330;7.914;2022-08-19T15:18:26;100279.00;;;29.85;31.80
64644;BME280;51056;50.330;7.914;2022-08-19T15:21:29;100273.78;;;30.42;30.07
64644;BME280;51056;50.330;7.914;2022-08-19T15:24:33;100275.34;;;30.11;29.64
64644;BME280;51056;50.330;7.914;2022-08-19T15:27:40;100271.78;;;29.52;32.24
64644;BME280;51056;50.330;7.914;2022-08-19T15:30:51;100270.38;;;29.43;32.94
64644;BME280;51056;50.330;7.914;2022-08-19T15:33:56;100271.16;;;29.70;31.17
64644;BME280;51056;50.330;7.914;2022-08-19T15:37:02;100270.97;;;29.38;33.43
64644;BME280;51056;50.330;7.914;2022-08-19T15:40:08;100263.75;;;29.19;33.58
64644;BME280;51056;50.330;7.914;2022-08-19T15:43:11;100265.00;;;29.23;33.59
64644;BME280;51056;50.330;7.914;2022-08-19T15:46:18;100258.94;;;29.48;31.00
64644;BME280;51056;50.330;7.914;2022-08-19T15:49:23;100252.13;;;29.65;30.92
64644;BME280;51056;50.330;7.914;2022-08-19T15:52:26;100247.38;;;29.40;33.17
64644;BME280;51056;50.330;7.914;2022-08-19T15:55:33;100238.44;;;29.47;32.60
64644;BME280;51056;50.330;7.914;2022-08-19T15:58:37;100233.19;;;29.78;31.93
64644;BME280;51056;50.330;7.914;2022-08-19T16:02:03;100227.25;;;29.50;32.29
64644;BME280;51056;50.330;7.914;2022-08-19T16:05:25;100227.31;;;29.30;31.84
64644;BME280;51056;50.330;7.914;2022-08-19T16:08:47;100230.84;;;29.10;31.64
64644;BME280;51056;50.330;7.914;2022-08-19T16:11:54;100226.81;;;29.53;32.70
64644;BME280;51056;50.330;7.914;2022-08-19T16:14:58;100231.84;;;29.23;31.55
64644;BME280;51056;50.330;7.914;2022-08-19T16:18:02;100234.13;;;28.92;31.87
64644;BME280;51056;50.330;7.914;2022-08-19T16:21:08;100239.72;;;28.91;34.30